sensor_id;sensor_type;location;lat;lon;timestamp;P1;durP1;ratioP1;P2;durP2;ratioP2
8401;SDS011;4238;48.404;9.498;2024-01-06T05:01:15;4.97;;;3.90;;
8401;SDS011;4238;48.404;9.498;2024-01-06T05:03:42;4.93;;;3.90;;
8401;SDS011;4238;48.404;9.498;2024-01-06T05:06:09;5.27;;;3.77;;
8401;SDS011;4238;48.404;9.498;2024-01-06T05:08:35;3.73;;;3.43;;
8401;SDS011;4238;48.404;9.498;2024-01-06T05:11:06;3.30;;;3.10;;
8401;SDS011;4238;48.404;9.498;2024-01-06T05:13:33;3.20;;;3.00;;
8401;SDS011;4238;48.404;9.498;2024-01-06T05:16:00;3.90;;;3.60;;
8401;SDS011;4238;48.404;9.498;2024-01-06T05:18:28;6.17;;;3.40;;
8401;SDS011;4238;48.404;9.498;2024-01-06T05:20:55;6.93;;;3.67;;
8401;SDS011;4238;48.404;9.498;2024-01-06T05:23:22;3.83;;;2.80;;
8401;SDS011;4238;48.404;9.498;2024-01-06T05:25:49;3.20;;;2.90;;
8401;SDS011;4238;48.404;9.498;2024-01-06T05:28:16;4.60;;;3.73;;
8401;SDS011;4238;48.404;9.498;2024-01-06T05:30:43;4.03;;;3.03;;
8401;SDS011;4238;48.404;9.498;2024-01-06T05:33:10;3.73;;;3.10;;
8401;SDS011;4238;48.404;9.498;2024-01-06T05:35:39;5.33;;;3.30;;
8401;SDS011;4238;48.404;9.498;2024-01-06T05:38:06;3.80;;;2.90;;
8401;SDS011;4238;48.404;9.498;2024-01-06T05:40:32;4.87;;;3.47;;
8401;SDS011;4238;48.404;9.498;2024-01-06T05:42:59;2.83;;;2.63;;
8401;SDS011;4238;48.404;9.498;2024-01-06T05:45:26;2.80;;;2.60;;
8401;SDS011;4238;48.404;9.498;2024-01-06T05:47:53;6.63;;;2.63;;
8401;SDS011;4238;48.404;9.498;2024-01-06T05:50:20;4.37;;;2.30;;
8401;SDS011;4238;48.404;9.498;2024-01-06T05:52:48;4.20;;;3.33;;
8401;SDS011;4238;48.404;9.498;2024-01-06T05:55:17;5.53;;;4.03;;
8401;SDS011;4238;48.404;9.498;2024-01-06T05:57:44;5.07;;;4.20;;
8401;SDS011;4238;48.404;9.498;2024-01-06T06:00:11;4.13;;;3.13;;
8401;SDS011;4238;48.404;9.498;2024-01-06T06:02:38;3.13;;;2.47;;
8401;SDS011;4238;48.404;9.498;2024-01-06T06:05:05;4.97;;;2.90;;
8401;SDS011;4238;48.404;9.498;2024-01-06T06:07:33;2.40;;;2.20;;
8401;SDS011;4238;48.404;9.498;2024-01-06T06:10:07;2.53;;;2.40;;
8401;SDS011;4238;48.404;9.498;2024-01-06T06:12:35;3.47;;;3.17;;
8401;SDS011;4238;48.404;9.498;2024-01-06T06:15:02;3.90;;;3.10;;
8401;SDS011;4238;48.404;9.498;2024-01-06T06:17:29;2.53;;;2.43;;
8401;SDS011;4238;48.404;9.498;2024-01-06T06:19:56;3.63;;;3.07;;
8401;SDS011;4238;48.404;9.498;2024-01-06T06:22:23;3.00;;;2.20;;
8401;SDS011;4238;48.404;9.498;2024-01-06T06:24:51;3.57;;;2.87;;
8401;SDS011;4238;48.404;9.498;2024-01-06T06:27:19;3.77;;;2.83;;
8401;SDS011;4238;48.404;9.498;2024-01-06T06:29:46;3.47;;;2.90;;
8401;SDS011;4238;48.404;9.498;2024-01-06T06:32:13;2.90;;;2.70;;
8401;SDS011;4238;48.404;9.498;2024-01-06T06:34:40;2.77;;;2.60;;
8401;SDS011;4238;48.404;9.498;2024-01-06T06:37:07;2.77;;;2.57;;
8401;SDS011;4238;48.404;9.498;2024-01-06T06:39:33;3.10;;;2.63;;
8401;SDS011;4238;48.404;9.498;2024-01-06T06:42:00;2.90;;;2.53;;
8401;SDS011;4238;48.404;9.498;2024-01-06T06:44:29;5.43;;;4.00;;
8401;SDS011;4238;48.404;9.498;2024-01-06T06:46:56;4.27;;;3.87;;
8401;SDS011;4238;48.404;9.498;2024-01-06T06:49:23;6.13;;;3.37;;
8401;SDS011;4238;48.404;9.498;2024-01-06T06:51:49;7.17;;;4.60;;
8401;SDS011;4238;48.404;9.498;2024-01-06T06:54:16;5.80;;;5.03;;
8401;SDS011;4238;48.404;9.498;2024-01-06T06:56:43;17.63;;;15.33;;
8401;SDS011;4238;48.404;9.498;2024-01-06T06:59:10;17.90;;;13.10;;
8401;SDS011;4238;48.404;9.498;2024-01-06T07:01:38;14.53;;;10.53;;
8401;SDS011;4238;48.404;9.498;2024-01-06T07:04:05;4.97;;;4.07;;
8401;SDS011;4238;48.404;9.498;2024-01-06T07:06:32;4.10;;;3.03;;
8401;SDS011;4238;48.404;9.498;2024-01-06T07:08:58;5.70;;;2.90;;
8401;SDS011;4238;48.404;9.498;2024-01-06T07:11:25;2.80;;;2.60;;
8401;SDS011;4238;48.404;9.498;2024-01-06T07:13:52;3.33;;;3.07;;
8401;SDS011;4238;48.404;9.498;2024-01-06T07:16:19;3.97;;;2.90;;
8401;SDS011;4238;48.404;9.498;2024-01-06T07:18:47;3.80;;;3.10;;
8401;SDS011;4238;48.404;9.498;2024-01-06T07:21:14;3.50;;;3.00;;
8401;SDS011;4238;48.404;9.498;2024-01-06T07:23:41;3.13;;;2.83;;
8401;SDS011;4238;48.404;9.498;2024-01-06T07:26:08;3.30;;;2.73;;
8401;SDS011;4238;48.404;9.498;2024-01-06T07:28:35;4.20;;;3.80;;
8401;SDS011;4238;48.404;9.498;2024-01-06T07:31:02;4.00;;;2.90;;
8401;SDS011;4238;48.404;9.498;2024-01-06T07:33:30;4.17;;;2.63;;
8401;SDS011;4238;48.404;9.498;2024-01-06T07:35:58;5.47;;;3.00;;
8401;SDS011;4238;48.404;9.498;2024-01-06T07:38:25;4.80;;;2.93;;
8401;SDS011;4238;48.404;9.498;2024-01-06T07:40:53;3.73;;;2.80;;
8401;SDS011;4238;48.404;9.498;2024-01-06T07:43:20;8.37;;;5.63;;
8401;SDS011;4238;48.404;9.498;2024-01-06T07:45:47;18.00;;;9.83;;
8401;SDS011;4238;48.404;9.498;2024-01-06T07:48:15;16.50;;;11.03;;
8401;SDS011;4238;48.404;9.498;2024-01-06T07:50:42;9.67;;;6.77;;
8401;SDS011;4238;48.404;9.498;2024-01-06T07:53:12;7.13;;;4.60;;
8401;SDS011;4238;48.404;9.498;2024-01-06T07:55:39;5.37;;;3.80;;
8401;SDS011;4238;48.404;9.498;2024-01-06T07:58:06;3.67;;;3.10;;
8401;SDS011;4238;48.404;9.498;2024-01-06T08:00:33;3.50;;;3.23;;
8401;SDS011;4238;48.404;9.498;2024-01-06T08:02:59;3.73;;;3.43;;
8401;SDS011;4238;48.404;9.498;2024-01-06T08:05:27;5.50;;;3.53;;
8401;SDS011;4238;48.404;9.498;2024-01-06T08:07:54;3.80;;;3.40;;
8401;SDS011;4238;48.404;9.498;2024-01-06T08:10:22;4.83;;;3.57;;
8401;SDS011;4238;48.404;9.498;2024-01-06T08:12:49;4.80;;;3.43;;
8401;SDS011;4238;48.404;9.498;2024-01-06T08:15:16;3.87;;;3.47;;
8401;SDS011;4238;48.404;9.498;2024-01-06T08:17:42;5.57;;;3.00;;
8401;SDS011;4238;48.404;9.498;2024-01-06T08:20:09;3.20;;;2.90;;
8401;SDS011;4238;48.404;9.498;2024-01-06T08:22:36;4.30;;;2.93;;
8401;SDS011;4238;48.404;9.498;2024-01-06T08:25:04;3.57;;;3.27;;
8401;SDS011;4238;48.404;9.498;2024-01-06T08:27:33;3.53;;;3.23;;
8401;SDS011;4238;48.404;9.498;2024-01-06T08:30:00;3.87;;;3.33;;
8401;SDS011;4238;48.404;9.498;2024-01-06T08:32:27;5.40;;;3.37;;
8401;SDS011;4238;48.404;9.498;2024-01-06T08:34:54;5.27;;;3.20;;
8401;SDS011;4238;48.404;9.498;2024-01-06T08:37:21;2.73;;;2.57;;
8401;SDS011;4238;48.404;9.498;2024-01-06T08:39:48;3.27;;;2.70;;
8401;SDS011;4238;48.404;9.498;2024-01-06T08:42:14;3.30;;;3.00;;
8401;SDS011;4238;48.404;9.498;2024-01-06T08:44:43;3.13;;;2.83;;
8401;SDS011;4238;48.404;9.498;2024-01-06T08:47:09;4.93;;;3.40;;
8401;SDS011;4238;48.404;9.498;2024-01-06T08:49:37;4.90;;;3.20;;
8401;SDS011;4238;48.404;9.498;2024-01-06T08:52:04;3.67;;;3.37;;
8401;SDS011;4238;48.404;9.498;2024-01-06T08:54:31;4.30;;;3.70;;
8401;SDS011;4238;48.404;9.498;2024-01-06T08:56:58;3.93;;;2.90;;
8401;SDS011;4238;48.404;9.498;2024-01-06T08:59:25;5.33;;;2.87;;
8401;SDS011;4238;48.404;9.498;2024-01-06T09:01:53;3.43;;;2.90;;
8401;SDS011;4238;48.404;9.498;2024-01-06T09:04:21;4.37;;;3.23;;
8401;SDS011;4238;48.404;9.498;2024-01-06T09:06:47;5.13;;;4.53;;
8401;SDS011;4238;48.404;9.498;2024-01-06T09:09:15;2.90;;;2.63;;
8401;SDS011;4238;48.404;9.498;2024-01-06T09:11:42;5.17;;;3.00;;
8401;SDS011;4238;48.404;9.498;2024-01-06T09:14:11;4.10;;;3.17;;
8401;SDS011;4238;48.404;9.498;2024-01-06T09:16:38;4.10;;;3.50;;
8401;SDS011;4238;48.404;9.498;2024-01-06T09:19:06;7.07;;;4.87;;
8401;SDS011;4238;48.404;9.498;2024-01-06T09:21:33;6.13;;;4.07;;
8401;SDS011;4238;48.404;9.498;2024-01-06T09:24:00;3.27;;;2.97;;
8401;SDS011;4238;48.404;9.498;2024-01-06T09:26:31;2.90;;;2.67;;
8401;SDS011;4238;48.404;9.498;2024-01-06T09:28:58;3.17;;;2.90;;
8401;SDS011;4238;48.404;9.498;2024-01-06T09:31:25;3.67;;;2.97;;
8401;SDS011;4238;48.404;9.498;2024-01-06T09:33:52;4.03;;;3.63;;
8401;SDS011;4238;48.404;9.498;2024-01-06T09:36:21;5.10;;;3.37;;
8401;SDS011;4238;48.404;9.498;2024-01-06T09:38:47;7.93;;;3.57;;
8401;SDS011;4238;48.404;9.498;2024-01-06T09:41:14;3.07;;;2.87;;
8401;SDS011;4238;48.404;9.498;2024-01-06T09:43:41;4.13;;;2.97;;
8401;SDS011;4238;48.404;9.498;2024-01-06T09:46:10;3.40;;;3.10;;
8401;SDS011;4238;48.404;9.498;2024-01-06T09:48:51;6.57;;;3.50;;
8401;SDS011;4238;48.404;9.498;2024-01-06T09:51:20;4.73;;;3.70;;
8401;SDS011;4238;48.404;9.498;2024-01-06T09:53:49;3.47;;;2.93;;
8401;SDS011;4238;48.404;9.498;2024-01-06T09:56:32;8.50;;;4.37;;
8401;SDS011;4238;48.404;9.498;2024-01-06T09:59:00;3.77;;;3.40;;
8401;SDS011;4238;48.404;9.498;2024-01-06T10:01:27;4.93;;;3.77;;
8401;SDS011;4238;48.404;9.498;2024-01-06T10:03:54;5.37;;;3.80;;
8401;SDS011;4238;48.404;9.498;2024-01-06T10:06:22;4.27;;;3.20;;
8401;SDS011;4238;48.404;9.498;2024-01-06T10:08:51;4.00;;;3.40;;
8401;SDS011;4238;48.404;9.498;2024-01-06T10:11:18;3.93;;;3.40;;
8401;SDS011;4238;48.404;9.498;2024-01-06T10:13:47;4.90;;;3.27;;
8401;SDS011;4238;48.404;9.498;2024-01-06T10:16:14;3.87;;;2.40;;
8401;SDS011;4238;48.404;9.498;2024-01-06T10:18:41;2.47;;;2.23;;
8401;SDS011;4238;48.404;9.498;2024-01-06T10:21:09;3.70;;;2.87;;
8401;SDS011;4238;48.404;9.498;2024-01-06T10:23:38;3.17;;;2.87;;
8401;SDS011;4238;48.404;9.498;2024-01-06T10:26:06;3.77;;;2.80;;
8401;SDS011;4238;48.404;9.498;2024-01-06T10:28:33;2.90;;;2.33;;
8401;SDS011;4238;48.404;9.498;2024-01-06T10:31:00;2.47;;;2.27;;
8401;SDS011;4238;48.404;9.498;2024-01-06T10:33:27;3.37;;;2.83;;
8401;SDS011;4238;48.404;9.498;2024-01-06T10:35:54;3.13;;;2.23;;
8401;SDS011;4238;48.404;9.498;2024-01-06T10:38:21;2.87;;;2.03;;
8401;SDS011;4238;48.404;9.498;2024-01-06T10:40:59;2.63;;;2.30;;
8401;SDS011;4238;48.404;9.498;2024-01-06T10:43:32;2.23;;;2.03;;
8401;SDS011;4238;48.404;9.498;2024-01-06T10:46:01;3.77;;;2.80;;
8401;SDS011;4238;48.404;9.498;2024-01-06T10:48:29;3.30;;;2.70;;
8401;SDS011;4238;48.404;9.498;2024-01-06T10:50:58;3.10;;;2.90;;
8401;SDS011;4238;48.404;9.498;2024-01-06T10:53:25;5.53;;;3.50;;
8401;SDS011;4238;48.404;9.498;2024-01-06T10:55:53;10.33;;;5.97;;
8401;SDS011;4238;48.404;9.498;2024-01-06T10:58:21;4.83;;;3.70;;
8401;SDS011;4238;48.404;9.498;2024-01-06T11:00:48;2.67;;;2.50;;
8401;SDS011;4238;48.404;9.498;2024-01-06T11:03:16;4.40;;;3.20;;
8401;SDS011;4238;48.404;9.498;2024-01-06T11:05:43;3.40;;;3.10;;
8401;SDS011;4238;48.404;9.498;2024-01-06T11:08:11;2.30;;;2.10;;
8401;SDS011;4238;48.404;9.498;2024-01-06T11:10:39;4.97;;;3.50;;
8401;SDS011;4238;48.404;9.498;2024-01-06T11:13:09;2.97;;;2.77;;
8401;SDS011;4238;48.404;9.498;2024-01-06T11:15:46;6.77;;;4.20;;
8401;SDS011;4238;48.404;9.498;2024-01-06T11:18:33;5.10;;;4.60;;
8401;SDS011;4238;48.404;9.498;2024-01-06T11:21:15;5.07;;;2.90;;
8401;SDS011;4238;48.404;9.498;2024-01-06T11:23:42;6.63;;;4.07;;
8401;SDS011;4238;48.404;9.498;2024-01-06T11:26:09;6.37;;;4.60;;
8401;SDS011;4238;48.404;9.498;2024-01-06T11:28:42;3.57;;;3.17;;
8401;SDS011;4238;48.404;9.498;2024-01-06T11:31:12;3.63;;;3.10;;
8401;SDS011;4238;48.404;9.498;2024-01-06T11:33:42;3.47;;;3.17;;
8401;SDS011;4238;48.404;9.498;2024-01-06T11:36:09;2.47;;;2.30;;
8401;SDS011;4238;48.404;9.498;2024-01-06T11:38:39;2.57;;;2.33;;
8401;SDS011;4238;48.404;9.498;2024-01-06T11:41:06;12.03;;;8.70;;
8401;SDS011;4238;48.404;9.498;2024-01-06T11:43:34;27.00;;;17.63;;
8401;SDS011;4238;48.404;9.498;2024-01-06T11:46:02;3.20;;;3.00;;
8401;SDS011;4238;48.404;9.498;2024-01-06T11:48:33;3.77;;;2.70;;
8401;SDS011;4238;48.404;9.498;2024-01-06T11:51:01;1.90;;;1.80;;
8401;SDS011;4238;48.404;9.498;2024-01-06T11:53:29;2.00;;;1.90;;
8401;SDS011;4238;48.404;9.498;2024-01-06T11:55:57;3.17;;;2.50;;
8401;SDS011;4238;48.404;9.498;2024-01-06T11:58:27;4.03;;;3.20;;
8401;SDS011;4238;48.404;9.498;2024-01-06T12:00:55;2.93;;;2.73;;
8401;SDS011;4238;48.404;9.498;2024-01-06T12:03:22;3.07;;;2.87;;
8401;SDS011;4238;48.404;9.498;2024-01-06T12:06:00;3.67;;;3.37;;
8401;SDS011;4238;48.404;9.498;2024-01-06T12:08:27;4.63;;;4.23;;
8401;SDS011;4238;48.404;9.498;2024-01-06T12:11:01;3.20;;;2.90;;
8401;SDS011;4238;48.404;9.498;2024-01-06T12:13:28;4.17;;;3.53;;
8401;SDS011;4238;48.404;9.498;2024-01-06T12:15:55;4.40;;;4.00;;
8401;SDS011;4238;48.404;9.498;2024-01-06T12:18:22;4.33;;;3.40;;
8401;SDS011;4238;48.404;9.498;2024-01-06T12:20:51;6.43;;;5.10;;
8401;SDS011;4238;48.404;9.498;2024-01-06T12:23:26;3.87;;;3.57;;
8401;SDS011;4238;48.404;9.498;2024-01-06T12:25:53;3.30;;;3.10;;
8401;SDS011;4238;48.404;9.498;2024-01-06T12:28:20;3.10;;;2.87;;
8401;SDS011;4238;48.404;9.498;2024-01-06T12:30:48;2.30;;;2.20;;
8401;SDS011;4238;48.404;9.498;2024-01-06T12:33:14;2.90;;;2.70;;
8401;SDS011;4238;48.404;9.498;2024-01-06T12:35:41;3.00;;;2.77;;
8401;SDS011;4238;48.404;9.498;2024-01-06T12:38:09;2.83;;;2.63;;
8401;SDS011;4238;48.404;9.498;2024-01-06T12:40:37;3.40;;;2.60;;
8401;SDS011;4238;48.404;9.498;2024-01-06T12:43:06;3.10;;;2.80;;
8401;SDS011;4238;48.404;9.498;2024-01-06T12:45:33;5.73;;;4.30;;
8401;SDS011;4238;48.404;9.498;2024-01-06T12:47:59;4.37;;;2.60;;
8401;SDS011;4238;48.404;9.498;2024-01-06T12:50:26;2.27;;;2.17;;
8401;SDS011;4238;48.404;9.498;2024-01-06T12:52:53;5.07;;;3.70;;
8401;SDS011;4238;48.404;9.498;2024-01-06T12:55:20;3.80;;;3.33;;
8401;SDS011;4238;48.404;9.498;2024-01-06T12:57:48;2.60;;;2.40;;
8401;SDS011;4238;48.404;9.498;2024-01-06T13:00:15;2.50;;;2.30;;
8401;SDS011;4238;48.404;9.498;2024-01-06T13:02:42;3.03;;;2.83;;
8401;SDS011;4238;48.404;9.498;2024-01-06T13:05:09;4.00;;;3.07;;
8401;SDS011;4238;48.404;9.498;2024-01-06T13:07:38;2.70;;;2.50;;
8401;SDS011;4238;48.404;9.498;2024-01-06T13:10:05;2.33;;;2.20;;
8401;SDS011;4238;48.404;9.498;2024-01-06T13:12:33;2.87;;;2.67;;
8401;SDS011;4238;48.404;9.498;2024-01-06T13:15:01;2.40;;;2.30;;
8401;SDS011;4238;48.404;9.498;2024-01-06T13:17:28;2.50;;;2.40;;
8401;SDS011;4238;48.404;9.498;2024-01-06T13:19:55;2.50;;;2.40;;
8401;SDS011;4238;48.404;9.498;2024-01-06T13:22:22;2.43;;;2.23;;
8401;SDS011;4238;48.404;9.498;2024-01-06T13:24:50;3.63;;;3.33;;
8401;SDS011;4238;48.404;9.498;2024-01-06T13:27:17;2.97;;;2.77;;
8401;SDS011;4238;48.404;9.498;2024-01-06T13:29:44;4.80;;;4.40;;
8401;SDS011;4238;48.404;9.498;2024-01-06T13:32:12;2.93;;;2.73;;
8401;SDS011;4238;48.404;9.498;2024-01-06T13:34:40;2.17;;;2.07;;
8401;SDS011;4238;48.404;9.498;2024-01-06T13:37:07;2.63;;;2.43;;
8401;SDS011;4238;48.404;9.498;2024-01-06T13:39:34;2.30;;;2.20;;
8401;SDS011;4238;48.404;9.498;2024-01-06T13:42:01;2.23;;;2.13;;
8401;SDS011;4238;48.404;9.498;2024-01-06T13:44:28;2.50;;;2.40;;
8401;SDS011;4238;48.404;9.498;2024-01-06T13:46:55;2.43;;;2.23;;
8401;SDS011;4238;48.404;9.498;2024-01-06T13:49:24;2.63;;;2.43;;
8401;SDS011;4238;48.404;9.498;2024-01-06T13:51:50;3.37;;;3.17;;
8401;SDS011;4238;48.404;9.498;2024-01-06T13:54:17;2.80;;;2.60;;
8401;SDS011;4238;48.404;9.498;2024-01-06T13:56:44;4.40;;;3.17;;
8401;SDS011;4238;48.404;9.498;2024-01-06T13:59:11;3.63;;;3.33;;
8401;SDS011;4238;48.404;9.498;2024-01-06T14:01:38;3.00;;;2.80;;
8401;SDS011;4238;48.404;9.498;2024-01-06T14:04:05;2.90;;;2.70;;
8401;SDS011;4238;48.404;9.498;2024-01-06T14:06:34;2.63;;;2.43;;
8401;SDS011;4238;48.404;9.498;2024-01-06T14:09:00;3.73;;;3.43;;
8401;SDS011;4238;48.404;9.498;2024-01-06T14:11:27;3.10;;;2.90;;
8401;SDS011;4238;48.404;9.498;2024-01-06T14:13:56;2.93;;;2.80;;
8401;SDS011;4238;48.404;9.498;2024-01-06T14:16:23;3.30;;;2.97;;
8401;SDS011;4238;48.404;9.498;2024-01-06T14:18:50;2.70;;;2.50;;
8401;SDS011;4238;48.404;9.498;2024-01-06T14:21:17;2.87;;;2.67;;
8401;SDS011;4238;48.404;9.498;2024-01-06T14:23:46;3.30;;;3.00;;
8401;SDS011;4238;48.404;9.498;2024-01-06T14:26:14;4.03;;;3.60;;
8401;SDS011;4238;48.404;9.498;2024-01-06T14:28:41;7.80;;;5.17;;
8401;SDS011;4238;48.404;9.498;2024-01-06T14:31:08;3.53;;;3.07;;
8401;SDS011;4238;48.404;9.498;2024-01-06T14:33:36;3.87;;;3.57;;
8401;SDS011;4238;48.404;9.498;2024-01-06T14:36:03;7.37;;;6.07;;
8401;SDS011;4238;48.404;9.498;2024-01-06T14:38:30;45.60;;;26.57;;
8401;SDS011;4238;48.404;9.498;2024-01-06T14:40:58;22.73;;;14.20;;
8401;SDS011;4238;48.404;9.498;2024-01-06T14:43:25;15.30;;;10.73;;
8401;SDS011;4238;48.404;9.498;2024-01-06T14:45:51;22.47;;;16.73;;
8401;SDS011;4238;48.404;9.498;2024-01-06T14:48:18;21.17;;;13.30;;
8401;SDS011;4238;48.404;9.498;2024-01-06T14:50:45;31.80;;;21.23;;
8401;SDS011;4238;48.404;9.498;2024-01-06T14:53:13;23.67;;;16.17;;
8401;SDS011;4238;48.404;9.498;2024-01-06T14:55:40;7.30;;;5.70;;
8401;SDS011;4238;48.404;9.498;2024-01-06T14:58:08;5.40;;;4.90;;
8401;SDS011;4238;48.404;9.498;2024-01-06T15:00:35;4.47;;;4.07;;
8401;SDS011;4238;48.404;9.498;2024-01-06T15:03:02;4.50;;;4.13;;
8401;SDS011;4238;48.404;9.498;2024-01-06T15:05:29;6.27;;;5.67;;
8401;SDS011;4238;48.404;9.498;2024-01-06T15:07:56;4.00;;;3.57;;
8401;SDS011;4238;48.404;9.498;2024-01-06T15:10:23;4.33;;;3.70;;
8401;SDS011;4238;48.404;9.498;2024-01-06T15:12:50;5.00;;;4.67;;
8401;SDS011;4238;48.404;9.498;2024-01-06T15:15:18;3.67;;;3.37;;
8401;SDS011;4238;48.404;9.498;2024-01-06T15:17:45;4.83;;;4.27;;
8401;SDS011;4238;48.404;9.498;2024-01-06T15:20:12;4.33;;;3.93;;
8401;SDS011;4238;48.404;9.498;2024-01-06T15:22:39;13.47;;;5.60;;
8401;SDS011;4238;48.404;9.498;2024-01-06T15:25:06;4.17;;;3.87;;
8401;SDS011;4238;48.404;9.498;2024-01-06T15:27:34;4.90;;;4.50;;
8401;SDS011;4238;48.404;9.498;2024-01-06T15:30:01;5.47;;;4.97;;
8401;SDS011;4238;48.404;9.498;2024-01-06T15:32:33;6.03;;;5.50;;
8401;SDS011;4238;48.404;9.498;2024-01-06T15:35:00;5.10;;;4.60;;
8401;SDS011;4238;48.404;9.498;2024-01-06T15:37:28;4.93;;;4.10;;
8401;SDS011;4238;48.404;9.498;2024-01-06T15:39:55;8.23;;;5.93;;
8401;SDS011;4238;48.404;9.498;2024-01-06T15:42:22;4.77;;;4.23;;
8401;SDS011;4238;48.404;9.498;2024-01-06T15:44:49;5.40;;;4.90;;
8401;SDS011;4238;48.404;9.498;2024-01-06T15:47:16;5.67;;;5.17;;
8401;SDS011;4238;48.404;9.498;2024-01-06T15:49:44;6.30;;;5.80;;
8401;SDS011;4238;48.404;9.498;2024-01-06T15:52:11;6.60;;;6.00;;
8401;SDS011;4238;48.404;9.498;2024-01-06T15:54:38;7.80;;;6.77;;
8401;SDS011;4238;48.404;9.498;2024-01-06T15:57:05;7.20;;;5.73;;
8401;SDS011;4238;48.404;9.498;2024-01-06T15:59:32;6.43;;;5.80;;
8401;SDS011;4238;48.404;9.498;2024-01-06T16:01:58;6.33;;;5.83;;
8401;SDS011;4238;48.404;9.498;2024-01-06T16:04:24;5.33;;;4.83;;
8401;SDS011;4238;48.404;9.498;2024-01-06T16:06:53;4.60;;;4.20;;
8401;SDS011;4238;48.404;9.498;2024-01-06T16:09:19;7.37;;;5.97;;
8401;SDS011;4238;48.404;9.498;2024-01-06T16:11:50;6.50;;;5.90;;
8401;SDS011;4238;48.404;9.498;2024-01-06T16:14:17;10.90;;;9.63;;
8401;SDS011;4238;48.404;9.498;2024-01-06T16:16:44;14.97;;;11.73;;
8401;SDS011;4238;48.404;9.498;2024-01-06T16:19:10;9.77;;;8.57;;
8401;SDS011;4238;48.404;9.498;2024-01-06T16:21:37;9.10;;;8.30;;
8401;SDS011;4238;48.404;9.498;2024-01-06T16:24:06;6.10;;;5.60;;
8401;SDS011;4238;48.404;9.498;2024-01-06T16:26:33;9.70;;;7.33;;
8401;SDS011;4238;48.404;9.498;2024-01-06T16:29:00;8.77;;;7.90;;
8401;SDS011;4238;48.404;9.498;2024-01-06T16:31:27;15.30;;;11.00;;
8401;SDS011;4238;48.404;9.498;2024-01-06T16:33:55;12.03;;;10.13;;
8401;SDS011;4238;48.404;9.498;2024-01-06T16:36:22;7.70;;;7.00;;
8401;SDS011;4238;48.404;9.498;2024-01-06T16:38:49;6.37;;;5.77;;
8401;SDS011;4238;48.404;9.498;2024-01-06T16:41:17;5.87;;;5.37;;
8401;SDS011;4238;48.404;9.498;2024-01-06T16:43:45;7.13;;;6.17;;
8401;SDS011;4238;48.404;9.498;2024-01-06T16:46:11;8.10;;;6.97;;
8401;SDS011;4238;48.404;9.498;2024-01-06T16:48:38;10.23;;;8.07;;
8401;SDS011;4238;48.404;9.498;2024-01-06T16:51:05;10.07;;;9.03;;
8401;SDS011;4238;48.404;9.498;2024-01-06T16:53:34;8.00;;;7.20;;
8401;SDS011;4238;48.404;9.498;2024-01-06T16:56:01;13.30;;;9.40;;
8401;SDS011;4238;48.404;9.498;2024-01-06T16:58:30;9.23;;;6.87;;
8401;SDS011;4238;48.404;9.498;2024-01-06T17:00:57;7.07;;;6.47;;
8401;SDS011;4238;48.404;9.498;2024-01-06T17:03:24;8.17;;;7.33;;
8401;SDS011;4238;48.404;9.498;2024-01-06T17:05:50;7.23;;;6.40;;
8401;SDS011;4238;48.404;9.498;2024-01-06T17:08:17;7.90;;;7.10;;
8401;SDS011;4238;48.404;9.498;2024-01-06T17:10:44;8.27;;;7.47;;
8401;SDS011;4238;48.404;9.498;2024-01-06T17:13:11;8.00;;;7.00;;
8401;SDS011;4238;48.404;9.498;2024-01-06T17:15:39;8.93;;;8.03;;
8401;SDS011;4238;48.404;9.498;2024-01-06T17:18:06;7.27;;;6.57;;
8401;SDS011;4238;48.404;9.498;2024-01-06T17:20:33;7.60;;;6.90;;
8401;SDS011;4238;48.404;9.498;2024-01-06T17:23:03;7.93;;;7.13;;
8401;SDS011;4238;48.404;9.498;2024-01-06T17:25:30;7.63;;;6.93;;
8401;SDS011;4238;48.404;9.498;2024-01-06T17:27:57;7.33;;;6.63;;
8401;SDS011;4238;48.404;9.498;2024-01-06T17:30:24;9.07;;;8.17;;
8401;SDS011;4238;48.404;9.498;2024-01-06T17:32:52;10.00;;;8.37;;
8401;SDS011;4238;48.404;9.498;2024-01-06T17:35:19;8.13;;;7.33;;
8401;SDS011;4238;48.404;9.498;2024-01-06T17:37:46;8.90;;;8.00;;
8401;SDS011;4238;48.404;9.498;2024-01-06T17:40:13;18.30;;;13.83;;
8401;SDS011;4238;48.404;9.498;2024-01-06T17:42:39;9.37;;;8.37;;
8401;SDS011;4238;48.404;9.498;2024-01-06T17:45:07;9.37;;;8.30;;
8401;SDS011;4238;48.404;9.498;2024-01-06T17:47:35;11.40;;;8.47;;
8401;SDS011;4238;48.404;9.498;2024-01-06T17:50:04;9.23;;;8.13;;
8401;SDS011;4238;48.404;9.498;2024-01-06T17:52:31;9.67;;;8.67;;
8401;SDS011;4238;48.404;9.498;2024-01-06T17:54:58;8.83;;;7.77;;
8401;SDS011;4238;48.404;9.498;2024-01-06T17:57:25;7.83;;;7.10;;
8401;SDS011;4238;48.404;9.498;2024-01-06T17:59:53;10.60;;;8.43;;
8401;SDS011;4238;48.404;9.498;2024-01-06T18:02:21;11.20;;;8.67;;
8401;SDS011;4238;48.404;9.498;2024-01-06T18:04:49;12.07;;;9.33;;
8401;SDS011;4238;48.404;9.498;2024-01-06T18:07:17;9.07;;;7.80;;
8401;SDS011;4238;48.404;9.498;2024-01-06T18:09:44;8.07;;;6.30;;
8401;SDS011;4238;48.404;9.498;2024-01-06T18:12:11;8.70;;;7.17;;
8401;SDS011;4238;48.404;9.498;2024-01-06T18:14:38;8.70;;;7.63;;
8401;SDS011;4238;48.404;9.498;2024-01-06T18:17:04;7.80;;;7.00;;
8401;SDS011;4238;48.404;9.498;2024-01-06T18:19:33;9.80;;;7.77;;
8401;SDS011;4238;48.404;9.498;2024-01-06T18:22:00;8.63;;;7.70;;
8401;SDS011;4238;48.404;9.498;2024-01-06T18:24:28;9.80;;;7.53;;
8401;SDS011;4238;48.404;9.498;2024-01-06T18:26:55;10.80;;;8.87;;
8401;SDS011;4238;48.404;9.498;2024-01-06T18:29:22;10.13;;;7.70;;
8401;SDS011;4238;48.404;9.498;2024-01-06T18:31:49;8.83;;;7.67;;
8401;SDS011;4238;48.404;9.498;2024-01-06T18:34:16;8.60;;;7.67;;
8401;SDS011;4238;48.404;9.498;2024-01-06T18:36:43;10.00;;;7.90;;
8401;SDS011;4238;48.404;9.498;2024-01-06T18:39:11;10.10;;;7.70;;
8401;SDS011;4238;48.404;9.498;2024-01-06T18:41:39;9.60;;;8.13;;
8401;SDS011;4238;48.404;9.498;2024-01-06T18:44:07;9.37;;;8.37;;
8401;SDS011;4238;48.404;9.498;2024-01-06T18:46:34;9.37;;;7.63;;
8401;SDS011;4238;48.404;9.498;2024-01-06T18:49:02;8.57;;;7.77;;
8401;SDS011;4238;48.404;9.498;2024-01-06T18:51:29;8.67;;;6.97;;
8401;SDS011;4238;48.404;9.498;2024-01-06T18:54:01;8.10;;;6.90;;
8401;SDS011;4238;48.404;9.498;2024-01-06T18:56:29;9.30;;;7.30;;
8401;SDS011;4238;48.404;9.498;2024-01-06T18:58:57;6.77;;;6.00;;
8401;SDS011;4238;48.404;9.498;2024-01-06T19:01:24;8.70;;;7.30;;
8401;SDS011;4238;48.404;9.498;2024-01-06T19:03:51;9.23;;;7.97;;
8401;SDS011;4238;48.404;9.498;2024-01-06T19:06:18;11.93;;;10.40;;
8401;SDS011;4238;48.404;9.498;2024-01-06T19:08:45;14.43;;;11.03;;
8401;SDS011;4238;48.404;9.498;2024-01-06T19:11:11;10.50;;;9.40;;
8401;SDS011;4238;48.404;9.498;2024-01-06T19:13:38;15.13;;;10.83;;
8401;SDS011;4238;48.404;9.498;2024-01-06T19:16:07;18.50;;;13.87;;
8401;SDS011;4238;48.404;9.498;2024-01-06T19:18:34;15.20;;;12.33;;
8401;SDS011;4238;48.404;9.498;2024-01-06T19:21:00;13.13;;;10.83;;
8401;SDS011;4238;48.404;9.498;2024-01-06T19:23:27;15.07;;;11.87;;
8401;SDS011;4238;48.404;9.498;2024-01-06T19:25:54;12.03;;;10.60;;
8401;SDS011;4238;48.404;9.498;2024-01-06T19:28:21;25.77;;;17.90;;
8401;SDS011;4238;48.404;9.498;2024-01-06T19:30:48;15.93;;;12.87;;
8401;SDS011;4238;48.404;9.498;2024-01-06T19:33:16;11.07;;;9.80;;
8401;SDS011;4238;48.404;9.498;2024-01-06T19:35:43;12.97;;;10.50;;
8401;SDS011;4238;48.404;9.498;2024-01-06T19:38:10;12.37;;;10.40;;
8401;SDS011;4238;48.404;9.498;2024-01-06T19:40:37;11.67;;;10.10;;
8401;SDS011;4238;48.404;9.498;2024-01-06T19:43:04;9.60;;;8.57;;
8401;SDS011;4238;48.404;9.498;2024-01-06T19:45:31;10.67;;;9.57;;
8401;SDS011;4238;48.404;9.498;2024-01-06T19:47:57;9.90;;;8.73;;
8401;SDS011;4238;48.404;9.498;2024-01-06T19:50:26;10.67;;;9.50;;
8401;SDS011;4238;48.404;9.498;2024-01-06T19:52:53;10.83;;;9.27;;
8401;SDS011;4238;48.404;9.498;2024-01-06T19:55:19;12.73;;;10.10;;
8401;SDS011;4238;48.404;9.498;2024-01-06T19:57:46;14.60;;;9.53;;
8401;SDS011;4238;48.404;9.498;2024-01-06T20:00:13;20.60;;;14.47;;
8401;SDS011;4238;48.404;9.498;2024-01-06T20:02:41;11.13;;;9.80;;
8401;SDS011;4238;48.404;9.498;2024-01-06T20:05:10;9.23;;;8.20;;
8401;SDS011;4238;48.404;9.498;2024-01-06T20:07:38;12.57;;;9.97;;
8401;SDS011;4238;48.404;9.498;2024-01-06T20:10:05;16.73;;;11.37;;
8401;SDS011;4238;48.404;9.498;2024-01-06T20:12:33;12.80;;;9.83;;
8401;SDS011;4238;48.404;9.498;2024-01-06T20:15:00;14.10;;;11.37;;